Time;durP1;ratioP1;P1;durP2;ratioP2;P2;SDS_P1;SDS_P2;PMS_P1;PMS_P2;Temp;Humidity;BMP_temperature;BMP_pressure;BME280_temperature;BME280_humidity;BME280_pressure;Samples;Min_cycle;Max_cycle;Signal;HPM_P1;HPM_P2
2024/01/27 00:01:03;;;;;;;7.20;2.00;;;;;;;;;;6090046;23;20182;-93
2024/01/27 00:04:08;;;;;;;4.47;1.57;;;;;;;;;;6084894;23;20158;-92
2024/01/27 00:07:13;;;;;;;6.23;1.50;;;;;;;;;;6083861;23;20170;-94
2024/01/27 00:10:19;;;;;;;7.97;2.03;;;;;;;;;;6084810;23;20254;-92
2024/01/27 00:13:25;;;;;;;6.77;2.00;;;;;;;;;;6084561;23;20170;-93
2024/01/27 00:16:33;;;;;;;8.80;1.87;;;;;;;;;;6086416;23;20200;-91
2024/01/27 00:19:39;;;;;;;9.23;2.17;;;;;;;;;;6086168;23;20206;-91
2024/01/27 00:22:51;;;;;;;5.00;2.00;;;;;;;;;;6086589;23;20261;-92
2024/01/27 00:25:57;;;;;;;5.77;1.70;;;;;;;;;;6088998;23;20202;-92
2024/01/27 00:29:03;;;;;;;5.97;2.07;;;;;;;;;;6089062;23;20239;-92
2024/01/27 00:32:11;;;;;;;5.57;1.47;;;;;;;;;;6087659;23;20173;-91
2024/01/27 00:35:17;;;;;;;9.27;2.93;;;;;;;;;;6088873;23;20171;-90
2024/01/27 00:38:24;;;;;;;5.57;1.90;;;;;;;;;;6089171;23;20190;-91
2024/01/27 00:41:30;;;;;;;7.17;2.30;;;;;;;;;;6088304;23;20230;-92
2024/01/27 00:44:36;;;;;;;8.27;2.33;;;;;;;;;;6086031;23;20781;-93
2024/01/27 00:47:48;;;;;;;11.43;2.90;;;;;;;;;;6102498;23;20172;-91
2024/01/27 00:54:27;;;;;;;9.07;2.13;;;;;;;;;;6092069;23;20611;-92
2024/01/27 00:57:33;;;;;;;7.13;2.10;;;;;;;;;;6086891;23;20169;-92
2024/01/27 01:00:38;;;;;;;17.10;2.53;;;;;;;;;;6090429;23;20154;-92
2024/01/27 01:03:47;;;;;;;7.17;2.00;;;;;;;;;;6087695;23;20174;-90
2024/01/27 01:06:53;;;;;;;9.77;2.50;;;;;;;;;;6104898;23;20187;-92
2024/01/27 01:09:59;;;;;;;7.70;1.73;;;;;;;;;;6090118;23;20179;-92
2024/01/27 01:13:04;;;;;;;9.83;2.53;;;;;;;;;;6084733;23;20175;-93
2024/01/27 01:16:11;;;;;;;6.00;1.80;;;;;;;;;;6085580;23;20611;-93
2024/01/27 01:19:20;;;;;;;4.27;1.60;;;;;;;;;;6086383;23;20239;-92
2024/01/27 01:22:26;;;;;;;7.83;1.80;;;;;;;;;;6086041;23;20229;-93
2024/01/27 01:25:32;;;;;;;9.17;2.00;;;;;;;;;;6088602;23;20154;-92
2024/01/27 01:28:37;;;;;;;7.43;2.07;;;;;;;;;;6089633;23;20559;-92
2024/01/27 01:31:49;;;;;;;7.73;2.20;;;;;;;;;;6088408;23;20158;-93
2024/01/27 01:34:58;;;;;;;8.27;1.90;;;;;;;;;;6087756;23;20182;-89
2024/01/27 01:38:04;;;;;;;5.17;2.20;;;;;;;;;;6089133;23;20198;-92
2024/01/27 01:41:09;;;;;;;7.80;2.07;;;;;;;;;;6087059;23;20235;-92
2024/01/27 01:44:17;;;;;;;14.43;2.97;;;;;;;;;;6087111;23;20180;-92
2024/01/27 01:47:24;;;;;;;12.27;2.70;;;;;;;;;;6089438;23;20177;-90
2024/01/27 01:50:43;;;;;;;4.83;1.70;;;;;;;;;;6088859;23;20252;-92
2024/01/27 01:53:49;;;;;;;6.67;2.47;;;;;;;;;;6089979;23;20170;-94
2024/01/27 01:57:09;;;;;;;12.43;2.97;;;;;;;;;;6091548;23;20196;-90
2024/01/27 02:00:15;;;;;;;13.30;3.03;;;;;;;;;;6091951;23;20181;-92
2024/01/27 02:03:21;;;;;;;10.87;2.27;;;;;;;;;;6088520;23;20174;-91
2024/01/27 02:06:29;;;;;;;10.37;2.53;;;;;;;;;;6091226;23;20182;-93
2024/01/27 02:09:34;;;;;;;10.77;2.97;;;;;;;;;;6090734;23;20171;-92
2024/01/27 02:12:40;;;;;;;8.83;2.20;;;;;;;;;;6090178;23;20219;-89
2024/01/27 02:15:45;;;;;;;7.90;1.87;;;;;;;;;;6087409;23;20151;-90
2024/01/27 02:18:51;;;;;;;4.77;1.90;;;;;;;;;;6086145;23;20536;-89
2024/01/27 02:21:58;;;;;;;9.37;2.00;;;;;;;;;;6088039;23;20185;-91
2024/01/27 02:25:06;;;;;;;9.97;2.30;;;;;;;;;;6089181;23;20166;-91
2024/01/27 02:28:12;;;;;;;11.20;2.47;;;;;;;;;;6084476;23;20180;-90
2024/01/27 02:31:17;;;;;;;6.97;2.13;;;;;;;;;;6085066;23;20162;-91
2024/01/27 02:34:23;;;;;;;8.50;2.10;;;;;;;;;;6085836;23;20170;-94
2024/01/27 02:37:28;;;;;;;13.13;2.53;;;;;;;;;;6084697;23;20182;-93
2024/01/27 02:40:35;;;;;;;11.47;2.13;;;;;;;;;;6087429;23;20637;-93
2024/01/27 02:43:41;;;;;;;11.97;2.30;;;;;;;;;;6090870;23;20238;-91
2024/01/27 02:46:50;;;;;;;5.47;2.00;;;;;;;;;;6085564;23;20168;-92
2024/01/27 02:49:56;;;;;;;5.83;2.00;;;;;;;;;;6085587;23;20179;-91
2024/01/27 02:53:02;;;;;;;7.10;2.07;;;;;;;;;;6086881;23;20668;-91
2024/01/27 02:56:10;;;;;;;8.43;2.17;;;;;;;;;;6086104;23;20171;-93
2024/01/27 02:59:16;;;;;;;9.33;2.10;;;;;;;;;;6084486;23;20190;-93
2024/01/27 03:02:21;;;;;;;7.83;2.20;;;;;;;;;;6086236;23;20183;-89
2024/01/27 03:05:27;;;;;;;9.17;2.40;;;;;;;;;;6085670;23;20511;-90
2024/01/27 03:08:33;;;;;;;5.97;2.10;;;;;;;;;;6086061;23;20191;-92
2024/01/27 03:11:40;;;;;;;4.93;1.60;;;;;;;;;;6087440;23;20174;-91
2024/01/27 03:14:46;;;;;;;12.87;2.70;;;;;;;;;;6086680;23;20509;-90
2024/01/27 03:17:52;;;;;;;7.00;2.00;;;;;;;;;;6087703;23;20162;-92
2024/01/27 03:20:58;;;;;;;9.47;2.03;;;;;;;;;;6087788;23;20687;-90
2024/01/27 03:24:04;;;;;;;9.03;2.00;;;;;;;;;;6086779;23;20158;-90
2024/01/27 03:27:10;;;;;;;6.60;1.70;;;;;;;;;;6087914;23;20219;-94
2024/01/27 03:30:16;;;;;;;6.03;2.00;;;;;;;;;;6086182;23;20568;-90
2024/01/27 03:33:22;;;;;;;7.20;2.30;;;;;;;;;;6084741;23;20159;-89
2024/01/27 03:36:27;;;;;;;11.47;3.13;;;;;;;;;;6084872;23;20150;-92
2024/01/27 03:39:33;;;;;;;16.17;3.70;;;;;;;;;;6083506;23;20218;-91
2024/01/27 03:42:39;;;;;;;14.20;3.07;;;;;;;;;;6084109;23;20605;-92
2024/01/27 03:45:45;;;;;;;11.53;2.53;;;;;;;;;;6082261;23;20170;-92
2024/01/27 03:48:50;;;;;;;14.13;3.40;;;;;;;;;;6084763;23;20188;-91
2024/01/27 03:51:56;;;;;;;18.00;4.73;;;;;;;;;;6085216;23;20170;-92
2024/01/27 03:55:01;;;;;;;13.23;3.43;;;;;;;;;;6084571;23;20173;-93
2024/01/27 03:58:08;;;;;;;10.37;3.00;;;;;;;;;;6084773;23;20182;-93
2024/01/27 04:01:13;;;;;;;15.23;3.10;;;;;;;;;;6084129;23;20170;-92
2024/01/27 04:04:18;;;;;;;12.33;2.60;;;;;;;;;;6084643;23;20159;-91
2024/01/27 04:07:23;;;;;;;12.87;2.93;;;;;;;;;;6086224;23;20171;-94
2024/01/27 04:10:29;;;;;;;15.90;2.87;;;;;;;;;;6084694;23;20291;-91
2024/01/27 04:13:37;;;;;;;8.93;2.67;;;;;;;;;;6084198;23;20182;-92
2024/01/27 04:16:42;;;;;;;15.57;3.03;;;;;;;;;;6085028;23;20269;-92
2024/01/27 04:19:48;;;;;;;14.03;2.77;;;;;;;;;;6085759;23;20182;-91
2024/01/27 04:22:54;;;;;;;8.50;3.23;;;;;;;;;;6085484;23;20170;-90
2024/01/27 04:26:00;;;;;;;13.57;3.17;;;;;;;;;;6088339;23;20166;-90
2024/01/27 04:29:08;;;;;;;12.00;2.60;;;;;;;;;;6084107;23;20179;-92
2024/01/27 04:32:14;;;;;;;14.33;2.70;;;;;;;;;;6086029;23;20167;-92
2024/01/27 04:35:23;;;;;;;10.57;2.70;;;;;;;;;;6083723;23;20220;-90
2024/01/27 04:38:28;;;;;;;11.57;2.90;;;;;;;;;;6084674;23;20170;-90
2024/01/27 04:41:34;;;;;;;15.40;2.67;;;;;;;;;;6084107;23;20241;-91
2024/01/27 04:44:43;;;;;;;10.27;2.83;;;;;;;;;;6071004;23;20222;-93
2024/01/27 04:47:48;;;;;;;10.40;2.57;;;;;;;;;;6073967;23;20197;-92
2024/01/27 04:50:53;;;;;;;12.77;2.73;;;;;;;;;;6052642;23;20172;-92
2024/01/27 04:53:59;;;;;;;10.87;2.53;;;;;;;;;;6052829;23;20171;-90
2024/01/27 04:57:05;;;;;;;11.93;2.53;;;;;;;;;;6054151;23;20172;-92
2024/01/27 05:00:13;;;;;;;9.90;2.20;;;;;;;;;;6057033;23;20527;-92
2024/01/27 05:03:18;;;;;;;16.30;2.60;;;;;;;;;;6072685;23;20155;-91
2024/01/27 05:06:24;;;;;;;10.90;2.30;;;;;;;;;;6060483;23;20150;-91
2024/01/27 05:09:29;;;;;;;7.87;2.50;;;;;;;;;;6058040;23;20189;-89
2024/01/27 05:12:34;;;;;;;13.20;2.90;;;;;;;;;;6056417;23;20175;-93
2024/01/27 05:15:41;;;;;;;7.47;2.27;;;;;;;;;;6055567;23;20151;-92
2024/01/27 05:18:46;;;;;;;8.07;2.37;;;;;;;;;;6055427;23;20216;-90
2024/01/27 05:21:51;;;;;;;10.53;2.37;;;;;;;;;;6072100;23;20181;-91
2024/01/27 05:24:56;;;;;;;7.67;2.43;;;;;;;;;;6055600;23;20160;-91
2024/01/27 05:28:02;;;;;;;15.43;3.33;;;;;;;;;;6055008;23;20175;-91
2024/01/27 05:31:10;;;;;;;11.07;2.23;;;;;;;;;;6073195;23;20155;-92
2024/01/27 05:34:15;;;;;;;14.53;3.57;;;;;;;;;;6057171;23;20170;-92
2024/01/27 05:37:21;;;;;;;14.30;2.80;;;;;;;;;;6056615;23;20638;-90
2024/01/27 05:40:26;;;;;;;14.47;2.93;;;;;;;;;;6056543;23;20198;-91
2024/01/27 05:43:31;;;;;;;11.00;2.80;;;;;;;;;;6054987;23;20232;-91
2024/01/27 05:46:38;;;;;;;13.00;2.90;;;;;;;;;;6055393;23;20174;-93
2024/01/27 05:49:43;;;;;;;11.03;3.00;;;;;;;;;;6055091;23;20720;-91
2024/01/27 05:52:49;;;;;;;11.27;3.20;;;;;;;;;;6055574;23;20247;-92
2024/01/27 05:55:54;;;;;;;9.83;2.53;;;;;;;;;;6071822;23;20288;-92
2024/01/27 05:59:00;;;;;;;10.47;3.37;;;;;;;;;;6053950;23;20175;-92
2024/01/27 06:02:07;;;;;;;13.93;3.70;;;;;;;;;;6055073;23;20168;-91
2024/01/27 06:05:12;;;;;;;13.20;3.63;;;;;;;;;;6055486;23;20255;-90
2024/01/27 06:08:33;;;;;;;11.60;3.80;;;;;;;;;;6056892;23;20159;-92
2024/01/27 06:11:39;;;;;;;12.63;3.67;;;;;;;;;;6058260;23;20156;-90
2024/01/27 06:14:44;;;;;;;7.63;2.83;;;;;;;;;;6075903;23;20160;-90
2024/01/27 06:17:54;;;;;;;12.67;3.50;;;;;;;;;;6059345;23;20171;-91
2024/01/27 06:21:00;;;;;;;9.80;3.30;;;;;;;;;;6057649;23;20199;-92
2024/01/27 06:24:05;;;;;;;16.40;3.00;;;;;;;;;;6057957;23;20175;-94
2024/01/27 06:27:11;;;;;;;14.70;4.43;;;;;;;;;;6058953;23;20167;-90
2024/01/27 06:30:18;;;;;;;13.93;3.10;;;;;;;;;;6059022;23;20175;-91
2024/01/27 06:33:25;;;;;;;10.23;3.07;;;;;;;;;;6057981;23;20223;-92
2024/01/27 06:36:32;;;;;;;8.47;3.00;;;;;;;;;;6056562;23;20193;-93
2024/01/27 06:39:39;;;;;;;9.97;2.90;;;;;;;;;;6057141;23;20182;-92
2024/01/27 06:42:45;;;;;;;10.57;3.03;;;;;;;;;;6058165;23;20175;-90
2024/01/27 06:45:51;;;;;;;13.63;2.83;;;;;;;;;;6058199;23;20264;-91
2024/01/27 06:48:58;;;;;;;6.03;2.53;;;;;;;;;;6057629;23;20176;-90
2024/01/27 06:52:04;;;;;;;15.73;2.97;;;;;;;;;;6057472;23;20175;-92
2024/01/27 06:55:10;;;;;;;10.53;3.37;;;;;;;;;;6059584;23;20159;-90
2024/01/27 06:58:16;;;;;;;14.40;3.67;;;;;;;;;;6059632;23;20155;-91
2024/01/27 07:01:21;;;;;;;16.37;4.00;;;;;;;;;;6057928;23;20231;-91
2024/01/27 07:04:28;;;;;;;8.83;3.40;;;;;;;;;;6059452;23;20166;-91
2024/01/27 07:07:33;;;;;;;13.37;3.43;;;;;;;;;;6074340;23;20175;-92
2024/01/27 07:10:39;;;;;;;11.37;3.33;;;;;;;;;;6059078;23;20162;-91
2024/01/27 07:13:44;;;;;;;12.97;3.87;;;;;;;;;;6058594;23;20233;-92
2024/01/27 07:16:50;;;;;;;14.03;4.23;;;;;;;;;;6059266;23;20179;-91
2024/01/27 07:19:57;;;;;;;18.53;4.20;;;;;;;;;;6057659;23;20324;-93
2024/01/27 07:23:02;;;;;;;13.60;4.10;;;;;;;;;;6056436;23;20175;-92
2024/01/27 07:26:09;;;;;;;14.43;4.13;;;;;;;;;;6060368;23;20196;-92
2024/01/27 07:29:15;;;;;;;8.67;3.43;;;;;;;;;;6061674;23;20168;-90
2024/01/27 07:32:22;;;;;;;13.03;4.13;;;;;;;;;;6061356;23;20163;-92
2024/01/27 07:35:29;;;;;;;15.97;3.80;;;;;;;;;;6079195;23;20196;-90
2024/01/27 07:38:34;;;;;;;13.93;4.27;;;;;;;;;;6058124;23;20175;-91
2024/01/27 07:41:39;;;;;;;8.03;3.77;;;;;;;;;;6059069;23;20243;-92
2024/01/27 07:44:45;;;;;;;11.87;4.37;;;;;;;;;;6058430;23;20240;-93
2024/01/27 07:48:04;;;;;;;20.80;4.97;;;;;;;;;;6060895;23;20179;-92
2024/01/27 07:51:11;;;;;;;13.20;4.80;;;;;;;;;;6060535;23;20179;-91
2024/01/27 07:54:17;;;;;;;14.00;4.53;;;;;;;;;;6060243;23;20216;-91
2024/01/27 07:57:23;;;;;;;16.77;5.13;;;;;;;;;;6059153;23;20151;-94
2024/01/27 08:00:28;;;;;;;17.97;5.33;;;;;;;;;;6059717;23;20202;-92
2024/01/27 08:03:34;;;;;;;17.43;5.00;;;;;;;;;;6059729;23;20203;-91
2024/01/27 08:06:49;;;;;;;21.13;7.27;;;;;;;;;;6058876;23;20224;-91
2024/01/27 08:09:54;;;;;;;32.20;11.73;;;;;;;;;;6058781;23;20511;-90
2024/01/27 08:13:04;;;;;;;20.27;8.70;;;;;;;;;;6056484;23;20167;-92
2024/01/27 08:16:12;;;;;;;21.33;5.53;;;;;;;;;;6071931;23;20183;-93
2024/01/27 08:19:20;;;;;;;22.53;6.70;;;;;;;;;;6057888;23;20219;-92
2024/01/27 08:22:26;;;;;;;23.57;8.83;;;;;;;;;;6057633;23;20163;-93
2024/01/27 08:25:36;;;;;;;19.17;8.30;;;;;;;;;;6058899;23;20175;-93
2024/01/27 08:28:42;;;;;;;14.03;5.37;;;;;;;;;;6040676;23;20176;-91
2024/01/27 08:31:51;;;;;;;60.77;22.60;;;;;;;;;;6057470;23;20208;-92
2024/01/27 08:35:00;;;;;;;18.40;6.63;;;;;;;;;;6060077;23;20236;-91
2024/01/27 08:38:12;;;;;;;13.93;6.40;;;;;;;;;;6057025;23;20219;-91
2024/01/27 08:41:20;;;;;;;16.10;4.97;;;;;;;;;;6057793;23;20287;-91
2024/01/27 08:44:27;;;;;;;16.67;5.20;;;;;;;;;;6056016;23;20194;-93
2024/01/27 08:47:32;;;;;;;18.43;5.73;;;;;;;;;;6056882;23;20247;-92
2024/01/27 08:54:12;;;;;;;14.80;5.90;;;;;;;;;;6057697;23;20156;-93
2024/01/27 08:57:20;;;;;;;14.57;5.53;;;;;;;;;;6056553;23;20503;-93
2024/01/27 09:00:43;;;;;;;24.17;7.53;;;;;;;;;;6073960;23;20184;-93
2024/01/27 09:03:49;;;;;;;13.13;5.57;;;;;;;;;;6071791;23;20507;-91
2024/01/27 09:06:55;;;;;;;16.70;5.23;;;;;;;;;;6056886;23;20664;-91
2024/01/27 09:10:13;;;;;;;14.50;4.70;;;;;;;;;;6057633;23;20194;-93
2024/01/27 09:13:20;;;;;;;14.63;4.07;;;;;;;;;;6058249;23;20221;-92
2024/01/27 09:16:31;;;;;;;9.57;3.97;;;;;;;;;;6057937;23;20216;-92
2024/01/27 09:19:37;;;;;;;15.47;3.93;;;;;;;;;;6056908;23;20616;-92
2024/01/27 09:22:44;;;;;;;15.30;4.47;;;;;;;;;;6053764;23;20182;-92
2024/01/27 09:25:49;;;;;;;14.37;4.10;;;;;;;;;;6059042;23;20506;-92
2024/01/27 09:28:59;;;;;;;13.60;4.47;;;;;;;;;;6057212;23;20247;-91
2024/01/27 09:32:04;;;;;;;20.73;5.33;;;;;;;;;;6074924;23;20155;-91
2024/01/27 09:35:11;;;;;;;15.73;5.30;;;;;;;;;;6057538;23;20171;-91
2024/01/27 09:38:17;;;;;;;15.27;4.30;;;;;;;;;;6058362;23;20216;-90
2024/01/27 09:41:23;;;;;;;12.93;3.50;;;;;;;;;;6057979;23;20199;-93
2024/01/27 09:44:30;;;;;;;12.60;3.77;;;;;;;;;;6055415;23;20572;-92
2024/01/27 09:47:40;;;;;;;16.20;3.40;;;;;;;;;;6052370;23;20255;-91
2024/01/27 09:50:47;;;;;;;12.87;3.93;;;;;;;;;;6054000;23;20162;-92
2024/01/27 09:53:54;;;;;;;20.13;3.87;;;;;;;;;;6056629;23;20175;-92
2024/01/27 09:57:00;;;;;;;20.53;4.07;;;;;;;;;;6057103;23;20171;-92
2024/01/27 10:00:08;;;;;;;13.60;4.40;;;;;;;;;;6058450;23;20167;-93
2024/01/27 10:03:15;;;;;;;13.70;3.97;;;;;;;;;;6060477;23;20163;-93
2024/01/27 10:06:21;;;;;;;16.67;3.60;;;;;;;;;;6058810;23;20151;-93
2024/01/27 10:09:27;;;;;;;18.40;3.90;;;;;;;;;;6057729;23;20171;-93
2024/01/27 10:12:34;;;;;;;12.00;3.43;;;;;;;;;;6058583;23;20196;-93
2024/01/27 12:30:47;;;;;;;19.10;3.93;;;;;;;;;;6086049;23;20227;-92
2024/01/27 16:03:09;;;;;;;17.87;5.23;;;;;;;;;;6053458;23;20269;-92
2024/01/27 16:06:15;;;;;;;17.90;5.83;;;;;;;;;;6092149;23;20167;-92
2024/01/27 16:09:22;;;;;;;25.27;6.73;;;;;;;;;;6058310;23;20182;-92
2024/01/27 16:15:49;;;;;;;20.03;6.30;;;;;;;;;;6090941;23;20158;-92
2024/01/27 16:19:11;;;;;;;15.73;5.00;;;;;;;;;;6089916;23;20166;-92
2024/01/27 16:25:55;;;;;;;17.43;5.00;;;;;;;;;;6089842;23;20167;-93
2024/01/27 18:34:06;;;;;;;23.23;7.30;;;;;;;;;;6122301;23;20213;-92
2024/01/27 18:37:12;;;;;;;24.43;7.33;;;;;;;;;;6148308;23;20173;-92
2024/01/27 18:40:18;;;;;;;23.60;7.30;;;;;;;;;;6146660;23;20223;-93
2024/01/27 19:51:13;;;;;;;29.60;9.63;;;;;;;;;;6109095;23;20194;-92
2024/01/27 19:54:21;;;;;;;27.60;9.33;;;;;;;;;;6101765;23;20202;-89
2024/01/27 19:57:29;;;;;;;32.00;10.07;;;;;;;;;;6084381;23;20258;-89
2024/01/27 20:00:34;;;;;;;27.70;9.53;;;;;;;;;;6103087;23;20197;-91
2024/01/27 20:03:42;;;;;;;26.50;10.43;;;;;;;;;;6103281;23;20161;-89
2024/01/27 20:06:49;;;;;;;35.10;11.13;;;;;;;;;;6103921;23;20241;-91
2024/01/27 20:17:07;;;;;;;27.10;10.07;;;;;;;;;;6102044;23;20214;-90
2024/01/27 20:20:15;;;;;;;34.63;10.10;;;;;;;;;;6101787;23;20218;-90
2024/01/27 20:26:40;;;;;;;28.70;9.57;;;;;;;;;;6104452;23;20198;-92
2024/01/27 20:29:51;;;;;;;29.83;9.17;;;;;;;;;;6101891;23;20210;-91
2024/01/27 20:33:03;;;;;;;29.20;10.03;;;;;;;;;;6101468;23;20177;-90
2024/01/27 20:36:08;;;;;;;29.00;9.33;;;;;;;;;;6103097;23;20162;-90
2024/01/27 20:39:16;;;;;;;22.93;8.50;;;;;;;;;;6098929;23;20232;-90
2024/01/27 20:42:23;;;;;;;24.30;8.23;;;;;;;;;;6103186;23;20192;-91
2024/01/27 20:48:57;;;;;;;19.00;7.20;;;;;;;;;;6098914;23;20185;-91
2024/01/27 20:52:02;;;;;;;22.80;8.30;;;;;;;;;;6098513;23;20177;-89
2024/01/27 20:55:15;;;;;;;28.23;7.93;;;;;;;;;;6084021;23;20177;-92
2024/01/27 20:58:20;;;;;;;17.47;7.50;;;;;;;;;;6098422;23;20170;-92
2024/01/27 22:15:17;;;;;;;24.17;8.77;;;;;;;;;;6068049;23;20225;-91
2024/01/27 22:18:23;;;;;;;23.83;7.97;;;;;;;;;;6124688;23;20181;-92
2024/01/27 22:21:29;;;;;;;24.07;7.97;;;;;;;;;;6111239;23;20331;-91
2024/01/27 22:24:34;;;;;;;23.40;8.23;;;;;;;;;;6126155;23;20169;-91
2024/01/27 22:27:40;;;;;;;22.83;7.47;;;;;;;;;;6128401;23;20213;-92
2024/01/27 22:30:47;;;;;;;21.27;7.70;;;;;;;;;;6126263;23;20219;-91
2024/01/27 22:33:52;;;;;;;24.83;8.07;;;;;;;;;;6128664;23;20257;-93
2024/01/27 22:36:57;;;;;;;22.70;8.37;;;;;;;;;;6129526;23;20190;-92
2024/01/27 22:40:04;;;;;;;39.27;12.03;;;;;;;;;;6131378;23;20237;-92
2024/01/27 22:43:10;;;;;;;36.27;10.63;;;;;;;;;;6129674;23;20281;-92
2024/01/27 22:46:18;;;;;;;27.87;9.07;;;;;;;;;;6129615;23;20165;-91
2024/01/27 22:49:24;;;;;;;27.30;8.50;;;;;;;;;;6128234;23;20214;-91
2024/01/27 22:52:29;;;;;;;28.87;9.20;;;;;;;;;;6126866;23;20169;-94
2024/01/27 22:55:35;;;;;;;30.23;9.97;;;;;;;;;;6126809;23;20185;-90
2024/01/27 22:58:40;;;;;;;27.10;10.43;;;;;;;;;;6127701;23;20180;-91
2024/01/27 23:01:47;;;;;;;28.37;11.17;;;;;;;;;;6126880;23;20197;-92
2024/01/27 23:04:53;;;;;;;30.83;9.40;;;;;;;;;;6127592;23;20234;-92
2024/01/27 23:07:58;;;;;;;27.40;9.83;;;;;;;;;;6129451;23;20219;-92
2024/01/27 23:11:04;;;;;;;33.13;10.77;;;;;;;;;;6130411;23;20189;-91
2024/01/27 23:14:10;;;;;;;28.67;10.20;;;;;;;;;;6130346;23;20209;-91
2024/01/27 23:17:17;;;;;;;29.23;10.57;;;;;;;;;;6129061;23;20193;-92
2024/01/27 23:20:22;;;;;;;26.80;10.07;;;;;;;;;;6129157;23;20173;-93
2024/01/27 23:23:29;;;;;;;29.13;10.17;;;;;;;;;;6129258;23;20225;-95
2024/01/27 23:26:35;;;;;;;36.20;10.63;;;;;;;;;;6130640;23;20617;-92
2024/01/27 23:29:41;;;;;;;43.40;10.77;;;;;;;;;;6132663;23;20188;-89
2024/01/27 23:32:50;;;;;;;31.10;11.40;;;;;;;;;;6129522;23;20174;-93
2024/01/27 23:36:08;;;;;;;27.30;9.93;;;;;;;;;;6128266;23;20174;-92
2024/01/27 23:39:14;;;;;;;28.90;10.87;;;;;;;;;;6129667;23;20170;-94
2024/01/27 23:42:19;;;;;;;38.23;13.03;;;;;;;;;;6128023;23;20276;-92
2024/01/27 23:45:25;;;;;;;37.17;11.20;;;;;;;;;;6127454;23;20198;-93
2024/01/27 23:48:32;;;;;;;31.37;10.53;;;;;;;;;;6128025;23;20149;-94
2024/01/27 23:51:38;;;;;;;25.13;9.70;;;;;;;;;;6127924;23;20197;-93
2024/01/27 23:54:44;;;;;;;28.87;10.00;;;;;;;;;;6127621;23;20185;-93
2024/01/27 23:57:49;;;;;;;27.47;10.03;;;;;;;;;;6127675;23;20170;-91
